createdAt,value
2023-04-30T00:00:00.294Z,11.85
2023-04-30T00:02:27.451Z,11.30
2023-04-30T00:04:54.998Z,11.20
2023-04-30T00:07:26.105Z,10.27
2023-04-30T00:09:53.505Z,14.32
2023-04-30T00:12:21.234Z,8.70
2023-04-30T00:14:49.513Z,12.07
2023-04-30T00:17:17.282Z,12.32
2023-04-30T00:19:44.378Z,10.85
2023-04-30T00:22:11.377Z,17.10
2023-04-30T00:24:38.500Z,13.65
2023-04-30T00:27:06.018Z,14.00
2023-04-30T00:29:33.161Z,12.98
2023-04-30T00:32:00.375Z,17.60
2023-04-30T00:34:27.585Z,12.77
2023-04-30T00:36:54.643Z,20.60
2023-04-30T00:39:21.719Z,10.85
2023-04-30T00:41:49.038Z,10.43
2023-04-30T00:44:16.631Z,12.98
2023-04-30T00:46:43.850Z,11.52
2023-04-30T00:49:11.508Z,9.80
2023-04-30T00:51:41.238Z,9.45
2023-04-30T00:54:08.783Z,11.85
2023-04-30T00:56:36.374Z,7.57
2023-04-30T00:59:03.878Z,14.60
2023-04-30T01:01:31.935Z,10.63
2023-04-30T01:03:59.406Z,12.77
2023-04-30T01:06:27.258Z,12.27
2023-04-30T01:08:54.971Z,12.23
2023-04-30T01:11:57.883Z,14.57
2023-04-30T01:14:34.047Z,8.25
2023-04-30T01:17:09.365Z,13.13
2023-04-30T01:19:45.058Z,12.48
2023-04-30T01:22:37.319Z,12.55
2023-04-30T01:25:41.676Z,9.20
2023-04-30T01:28:13.059Z,14.48
2023-04-30T01:30:44.806Z,13.07
2023-04-30T01:33:13.635Z,21.23
2023-04-30T01:36:12.656Z,13.80
2023-04-30T01:38:59.042Z,9.18
2023-04-30T01:41:56.999Z,9.43
2023-04-30T01:44:49.267Z,11.23
2023-04-30T01:47:21.774Z,12.15
2023-04-30T01:49:57.457Z,16.35
2023-04-30T01:52:39.659Z,9.90
2023-04-30T01:55:18.381Z,7.97
2023-04-30T01:57:59.628Z,13.18
2023-04-30T02:00:27.968Z,12.23
2023-04-30T02:02:55.171Z,12.48
2023-04-30T02:05:22.502Z,12.25
2023-04-30T02:07:51.822Z,13.95
2023-04-30T02:10:24.229Z,10.95
2023-04-30T02:12:51.303Z,12.18
2023-04-30T02:15:18.872Z,15.38
2023-04-30T02:17:45.982Z,14.13
2023-04-30T02:20:13.266Z,10.82
2023-04-30T02:22:40.417Z,14.88
2023-04-30T02:25:08.131Z,11.18
2023-04-30T02:27:35.231Z,10.50
2023-04-30T02:30:03.206Z,12.43
2023-04-30T02:32:30.759Z,12.60
2023-04-30T02:34:58.126Z,11.77
2023-04-30T02:37:25.505Z,7.03
2023-04-30T02:39:54.684Z,12.98
2023-04-30T02:42:22.151Z,11.77
2023-04-30T02:44:49.207Z,5.82
2023-04-30T02:47:16.463Z,11.77
2023-04-30T02:49:46.291Z,12.32
2023-04-30T02:52:15.460Z,11.35
2023-04-30T02:54:43.041Z,18.27
2023-04-30T02:57:10.534Z,16.80
2023-04-30T02:59:39.088Z,10.85
2023-04-30T03:02:06.220Z,10.70
2023-04-30T03:04:33.439Z,12.32
2023-04-30T03:07:00.611Z,6.45
2023-04-30T03:09:28.024Z,9.48
2023-04-30T03:11:55.194Z,10.02
2023-04-30T03:14:22.340Z,13.85
2023-04-30T03:16:49.547Z,12.88
2023-04-30T03:19:17.659Z,13.45
2023-04-30T03:21:44.817Z,11.15
2023-04-30T03:24:11.963Z,11.15
2023-04-30T03:26:39.421Z,10.10
2023-04-30T03:29:06.664Z,18.88
2023-04-30T03:31:34.044Z,15.20
2023-04-30T03:34:01.093Z,9.63
2023-04-30T03:36:28.441Z,12.68
2023-04-30T03:38:55.553Z,14.93
2023-04-30T03:41:24.243Z,18.98
2023-04-30T03:43:51.319Z,9.82
2023-04-30T03:46:18.791Z,11.07
2023-04-30T03:48:46.003Z,10.30
2023-04-30T03:51:13.042Z,12.30
2023-04-30T03:53:40.301Z,8.55
2023-04-30T03:56:08.018Z,13.73
2023-04-30T03:58:35.347Z,14.55
2023-04-30T04:01:02.937Z,11.15
2023-04-30T04:03:30.084Z,13.57
2023-04-30T04:05:57.544Z,11.95
2023-04-30T04:08:24.691Z,16.83
2023-04-30T04:10:51.732Z,10.32
2023-04-30T04:13:19.245Z,12.82
2023-04-30T04:15:46.701Z,16.00
2023-04-30T04:18:13.899Z,10.05
2023-04-30T04:20:41.096Z,15.88
2023-04-30T04:23:08.240Z,18.95
2023-04-30T04:25:35.469Z,10.70
2023-04-30T04:28:02.659Z,16.20
2023-04-30T04:30:29.804Z,18.55
2023-04-30T04:32:57.768Z,11.60
2023-04-30T04:35:24.947Z,17.27
2023-04-30T04:37:52.227Z,10.85
2023-04-30T04:40:19.489Z,17.10
2023-04-30T04:42:50.568Z,15.95
2023-04-30T04:45:18.438Z,10.45
2023-04-30T04:47:45.644Z,8.43
2023-04-30T04:50:13.658Z,9.70
2023-04-30T04:52:41.206Z,16.75
2023-04-30T04:55:08.867Z,16.50
2023-04-30T04:57:36.042Z,12.00
2023-04-30T05:00:05.419Z,10.05
2023-04-30T05:02:32.823Z,11.57
2023-04-30T05:05:00.040Z,12.38
2023-04-30T05:07:27.316Z,21.38
2023-04-30T05:09:54.687Z,16.98
2023-04-30T05:12:22.026Z,17.73
2023-04-30T05:14:51.160Z,11.27
2023-04-30T05:17:21.474Z,14.45
2023-04-30T05:19:50.799Z,12.45
2023-04-30T05:22:18.445Z,14.93
2023-04-30T05:24:45.797Z,19.85
2023-04-30T05:27:12.886Z,20.70
2023-04-30T05:29:40.015Z,18.50
2023-04-30T05:32:09.203Z,11.45
2023-04-30T05:34:36.985Z,25.30
2023-04-30T05:37:04.274Z,11.98
2023-04-30T05:39:31.390Z,9.48
2023-04-30T05:41:58.995Z,11.45
2023-04-30T05:44:26.044Z,13.57
2023-04-30T05:46:53.203Z,21.95
2023-04-30T05:49:20.367Z,18.38
2023-04-30T05:51:47.558Z,10.80
2023-04-30T05:54:14.663Z,20.80
2023-04-30T05:56:42.261Z,12.68
2023-04-30T05:59:09.369Z,26.02
2023-04-30T06:01:36.464Z,12.98
2023-04-30T06:04:05.051Z,25.17
2023-04-30T06:06:32.443Z,14.23
2023-04-30T06:08:59.491Z,18.60
2023-04-30T06:11:27.364Z,16.65
2023-04-30T06:13:54.587Z,19.52
2023-04-30T06:16:22.002Z,19.90
2023-04-30T06:18:49.135Z,14.80
2023-04-30T06:21:16.412Z,12.68
2023-04-30T06:23:43.909Z,19.23
2023-04-30T06:26:11.278Z,21.85
2023-04-30T06:28:38.462Z,20.63
2023-04-30T06:31:05.816Z,10.75
2023-04-30T06:33:32.881Z,12.60
2023-04-30T06:35:59.929Z,15.65
2023-04-30T06:38:27.062Z,18.33
2023-04-30T06:40:54.099Z,13.68
2023-04-30T06:43:21.329Z,14.27
2023-04-30T06:45:48.629Z,22.85
2023-04-30T06:48:15.895Z,14.63
2023-04-30T06:50:45.319Z,15.55
2023-04-30T06:53:12.959Z,12.25
2023-04-30T06:55:41.854Z,32.88
2023-04-30T06:58:09.077Z,15.02
2023-04-30T07:00:36.290Z,14.05
2023-04-30T07:03:04.728Z,20.38
2023-04-30T07:05:32.793Z,10.20
2023-04-30T07:08:04.049Z,26.27
2023-04-30T07:10:31.797Z,14.40
2023-04-30T07:12:59.337Z,11.70
2023-04-30T07:15:26.453Z,17.50
2023-04-30T07:17:53.815Z,16.10
2023-04-30T07:20:21.236Z,12.60
2023-04-30T07:22:50.872Z,11.10
2023-04-30T07:25:18.659Z,12.20
2023-04-30T07:27:46.124Z,9.60
2023-04-30T07:30:13.175Z,10.77
2023-04-30T07:32:41.609Z,8.88
2023-04-30T07:35:09.803Z,6.43
2023-04-30T07:37:37.185Z,8.35
2023-04-30T07:40:07.649Z,13.77
2023-04-30T07:42:35.192Z,9.25
2023-04-30T07:45:04.938Z,8.65
2023-04-30T07:47:32.146Z,14.68
2023-04-30T07:49:59.288Z,10.63
2023-04-30T07:52:26.616Z,12.20
2023-04-30T07:54:53.689Z,8.43
2023-04-30T07:57:21.107Z,10.48
2023-04-30T07:59:51.307Z,8.75
2023-04-30T08:02:19.596Z,14.35
2023-04-30T08:04:47.570Z,23.88
2023-04-30T08:07:18.419Z,11.30
2023-04-30T08:09:45.600Z,10.30
2023-04-30T08:12:12.801Z,14.63
2023-04-30T08:14:39.935Z,10.52
2023-04-30T08:17:07.277Z,9.50
2023-04-30T08:19:34.376Z,6.20
2023-04-30T08:22:01.845Z,13.55
2023-04-30T08:24:29.186Z,12.00
2023-04-30T08:26:56.351Z,9.25
2023-04-30T08:29:23.552Z,19.95
2023-04-30T08:31:51.006Z,8.52
2023-04-30T08:34:18.846Z,11.35
2023-04-30T08:36:46.032Z,10.05
2023-04-30T08:39:13.203Z,11.10
2023-04-30T08:41:45.341Z,21.35
2023-04-30T08:44:13.569Z,12.95
2023-04-30T08:46:42.284Z,11.55
2023-04-30T08:49:10.942Z,10.07
2023-04-30T08:51:38.055Z,10.60
2023-04-30T08:54:06.117Z,13.05
2023-04-30T08:56:35.162Z,8.70
2023-04-30T08:59:02.768Z,13.55
2023-04-30T09:01:30.524Z,13.65
2023-04-30T09:03:58.008Z,8.38
2023-04-30T09:06:25.496Z,11.18
2023-04-30T09:08:54.461Z,15.25
2023-04-30T09:11:31.973Z,10.38
2023-04-30T09:14:01.568Z,12.68
2023-04-30T09:16:32.995Z,9.93
2023-04-30T09:21:37.084Z,24.08
2023-04-30T09:24:05.582Z,19.70
2023-04-30T09:26:37.817Z,10.80
2023-04-30T09:29:10.774Z,11.77
2023-04-30T09:31:41.036Z,8.73
2023-04-30T09:34:08.540Z,7.70
2023-04-30T09:36:35.876Z,7.32
2023-04-30T09:39:19.035Z,7.20
2023-04-30T09:41:46.301Z,6.60
2023-04-30T09:44:29.831Z,8.45
2023-04-30T09:46:59.004Z,13.88
2023-04-30T09:49:27.903Z,12.07
2023-04-30T09:51:56.101Z,9.30
2023-04-30T09:54:29.445Z,8.27
2023-04-30T09:56:59.145Z,13.00
2023-04-30T09:59:28.673Z,41.00
2023-04-30T10:01:57.880Z,9.23
2023-04-30T10:04:28.429Z,11.68
2023-04-30T10:06:58.807Z,14.60
2023-04-30T10:09:31.201Z,10.07
2023-04-30T10:11:58.596Z,9.80
2023-04-30T10:14:28.074Z,6.95
2023-04-30T10:17:23.635Z,9.68
2023-04-30T10:19:55.115Z,6.60
2023-04-30T10:24:50.937Z,13.77
2023-04-30T10:27:19.334Z,10.98
2023-04-30T10:29:47.752Z,7.88
2023-04-30T10:32:15.823Z,7.65
2023-04-30T10:34:53.513Z,7.38
2023-04-30T10:37:29.612Z,10.57
2023-04-30T10:39:57.028Z,12.68
2023-04-30T10:42:24.468Z,7.85
2023-04-30T10:44:52.051Z,7.70
2023-04-30T10:47:19.332Z,6.88
2023-04-30T10:49:48.493Z,10.55
2023-04-30T10:52:26.685Z,8.80
2023-04-30T10:54:53.775Z,6.15
2023-04-30T10:57:21.952Z,8.95
2023-04-30T11:00:07.537Z,6.35
2023-04-30T11:02:48.710Z,7.40
2023-04-30T11:05:18.606Z,8.77
2023-04-30T11:07:57.351Z,6.22
2023-04-30T11:10:28.960Z,7.97
2023-04-30T11:15:36.752Z,9.25
2023-04-30T11:18:04.178Z,7.13
2023-04-30T11:20:31.317Z,7.20
2023-04-30T11:23:28.136Z,8.50
2023-04-30T11:26:04.965Z,8.73
2023-04-30T11:28:34.682Z,7.25
2023-04-30T11:31:03.001Z,9.52
2023-04-30T11:33:31.791Z,9.60
2023-04-30T11:36:00.894Z,6.88
2023-04-30T11:38:30.726Z,6.68
2023-04-30T11:40:58.592Z,5.35
2023-04-30T11:43:28.029Z,9.98
2023-04-30T11:46:06.912Z,5.40
2023-04-30T11:48:35.508Z,6.45
2023-04-30T11:51:15.932Z,6.22
2023-04-30T11:53:43.720Z,5.50
2023-04-30T11:56:10.897Z,5.50
2023-04-30T11:58:39.685Z,12.05
2023-04-30T12:01:09.655Z,6.10
2023-04-30T12:03:50.316Z,6.18
2023-04-30T12:06:26.628Z,6.87
2023-04-30T12:08:57.543Z,6.38
2023-04-30T12:11:34.908Z,7.47
2023-04-30T12:14:12.695Z,6.80
2023-04-30T12:16:51.173Z,7.35
2023-04-30T12:19:20.599Z,6.43
2023-04-30T12:21:49.687Z,5.60
2023-04-30T12:24:18.915Z,7.05
2023-04-30T12:26:47.521Z,7.80
2023-04-30T12:29:19.096Z,10.00
2023-04-30T12:31:50.327Z,5.95
2023-04-30T12:34:18.509Z,4.07
2023-04-30T12:36:45.748Z,7.18
2023-04-30T12:39:18.676Z,7.00
2023-04-30T12:41:48.232Z,5.45
2023-04-30T12:44:18.590Z,5.90
2023-04-30T12:46:47.598Z,9.48
2023-04-30T12:49:28.531Z,6.78
2023-04-30T12:52:08.572Z,6.72
2023-04-30T12:54:37.087Z,7.30
2023-04-30T12:57:09.171Z,5.85
2023-04-30T12:59:56.307Z,6.85
2023-04-30T13:02:26.179Z,6.68
2023-04-30T13:04:53.677Z,10.88
2023-04-30T13:07:21.095Z,6.25
2023-04-30T13:09:51.158Z,6.20
2023-04-30T13:12:19.468Z,4.85
2023-04-30T13:14:46.677Z,5.90
2023-04-30T13:17:14.360Z,6.97
2023-04-30T13:19:41.957Z,11.32
2023-04-30T13:22:09.045Z,10.40
2023-04-30T13:24:36.937Z,8.82
2023-04-30T13:27:04.244Z,7.10
2023-04-30T13:29:32.253Z,8.20
2023-04-30T13:31:59.397Z,4.90
2023-04-30T13:34:26.571Z,6.20
2023-04-30T13:36:53.916Z,7.63
2023-04-30T13:39:22.286Z,6.35
2023-04-30T13:41:49.367Z,5.32
2023-04-30T13:44:17.502Z,9.68
2023-04-30T13:46:44.649Z,10.30
2023-04-30T13:49:11.797Z,5.50
2023-04-30T13:51:39.019Z,3.78
2023-04-30T13:54:06.130Z,4.72
2023-04-30T13:56:33.265Z,6.65
2023-04-30T13:59:00.663Z,5.78
2023-04-30T14:01:27.757Z,5.65
2023-04-30T14:03:55.481Z,6.30
2023-04-30T14:06:22.880Z,6.75
2023-04-30T14:08:49.968Z,13.80
2023-04-30T14:11:17.259Z,10.45
2023-04-30T14:13:44.527Z,8.45
2023-04-30T14:16:11.682Z,11.85
2023-04-30T14:18:38.777Z,6.15
2023-04-30T14:21:06.281Z,6.35
2023-04-30T14:23:34.039Z,7.13
2023-04-30T14:26:02.689Z,5.47
2023-04-30T14:28:29.851Z,7.40
2023-04-30T14:30:57.258Z,5.15
2023-04-30T14:33:24.310Z,5.53
2023-04-30T14:35:51.597Z,7.35
2023-04-30T14:38:19.022Z,5.05
2023-04-30T14:40:46.408Z,7.18
2023-04-30T14:43:13.975Z,4.43
2023-04-30T14:45:41.233Z,8.02
2023-04-30T14:48:08.539Z,6.15
2023-04-30T14:50:35.618Z,5.97
2023-04-30T14:53:04.342Z,7.50
2023-04-30T14:55:32.216Z,4.97
2023-04-30T14:57:59.667Z,4.57
2023-04-30T15:00:27.951Z,6.03
2023-04-30T15:02:55.279Z,6.05
2023-04-30T15:05:22.480Z,7.40
2023-04-30T15:07:49.576Z,6.57
2023-04-30T15:10:16.591Z,7.07
2023-04-30T15:12:44.050Z,6.80
2023-04-30T15:15:11.751Z,6.85
2023-04-30T15:17:39.131Z,11.77
2023-04-30T15:20:07.176Z,8.27
2023-04-30T15:22:34.612Z,8.07
2023-04-30T15:25:02.408Z,17.75
2023-04-30T15:27:31.788Z,5.55
2023-04-30T15:29:59.643Z,6.13
2023-04-30T15:32:26.706Z,7.85
2023-04-30T15:34:54.224Z,7.05
2023-04-30T15:37:21.361Z,8.00
2023-04-30T15:39:49.886Z,7.82
2023-04-30T15:42:17.501Z,9.35
2023-04-30T15:44:44.522Z,7.82
2023-04-30T15:47:12.707Z,5.90
2023-04-30T15:49:39.727Z,6.47
2023-04-30T15:52:07.332Z,6.20
2023-04-30T15:54:34.443Z,6.03
2023-04-30T15:57:03.312Z,5.38
2023-04-30T15:59:30.816Z,5.43
2023-04-30T16:01:58.153Z,6.28
2023-04-30T16:04:25.297Z,6.30
2023-04-30T16:06:52.804Z,6.07
2023-04-30T16:09:20.111Z,6.65
2023-04-30T16:11:47.582Z,7.15
2023-04-30T16:14:14.733Z,5.38
2023-04-30T16:16:42.380Z,6.15
2023-04-30T16:19:10.058Z,5.05
2023-04-30T16:21:38.593Z,5.35
2023-04-30T16:24:06.662Z,8.20
2023-04-30T16:26:36.839Z,6.80
2023-04-30T16:29:04.421Z,5.75
2023-04-30T16:31:32.379Z,7.47
2023-04-30T16:33:59.518Z,5.68
2023-04-30T16:36:28.218Z,8.45
2023-04-30T16:38:55.479Z,3.95
2023-04-30T16:41:22.595Z,8.80
2023-04-30T16:43:50.110Z,5.20
2023-04-30T16:46:19.522Z,5.00
2023-04-30T16:48:50.829Z,8.25
2023-04-30T16:53:45.003Z,7.68
2023-04-30T16:56:12.429Z,6.57
2023-04-30T16:58:39.458Z,7.20
2023-04-30T17:01:06.931Z,7.68
2023-04-30T17:03:37.411Z,8.40
2023-04-30T17:06:06.857Z,7.15
2023-04-30T17:08:34.016Z,8.57
2023-04-30T17:11:01.058Z,6.53
2023-04-30T17:13:30.806Z,9.95
2023-04-30T17:16:02.226Z,4.65
2023-04-30T17:18:30.069Z,6.95
2023-04-30T17:20:57.125Z,7.85
2023-04-30T17:23:25.864Z,5.68
2023-04-30T17:25:53.068Z,9.85
2023-04-30T17:28:20.160Z,8.00
2023-04-30T17:30:47.376Z,4.85
2023-04-30T17:33:14.502Z,10.20
2023-04-30T17:35:41.606Z,5.57
2023-04-30T17:38:08.797Z,14.65
2023-04-30T17:40:36.052Z,12.85
2023-04-30T17:43:03.175Z,11.85
2023-04-30T17:45:30.330Z,8.50
2023-04-30T17:47:57.854Z,7.53
2023-04-30T17:50:24.892Z,7.32
2023-04-30T17:52:52.578Z,6.15
2023-04-30T17:55:19.763Z,5.70
2023-04-30T17:57:47.550Z,8.95
2023-04-30T18:00:15.513Z,9.95
2023-04-30T18:02:43.512Z,20.13
2023-04-30T18:05:11.810Z,17.17
2023-04-30T18:07:39.075Z,13.63
2023-04-30T18:10:07.013Z,9.98
2023-04-30T18:12:34.360Z,11.27
2023-04-30T18:15:01.932Z,8.63
2023-04-30T18:17:29.174Z,8.75
2023-04-30T18:19:56.628Z,8.38
2023-04-30T18:22:24.164Z,8.52
2023-04-30T18:24:51.326Z,11.00
2023-04-30T18:27:19.486Z,5.43
2023-04-30T18:29:47.483Z,6.75
2023-04-30T18:32:14.978Z,7.15
2023-04-30T18:34:42.373Z,6.43
2023-04-30T18:37:09.622Z,11.05
2023-04-30T18:39:36.738Z,8.15
2023-04-30T18:42:04.310Z,9.63
2023-04-30T18:44:32.388Z,8.10
2023-04-30T18:47:00.676Z,8.57
2023-04-30T18:49:27.995Z,10.30
2023-04-30T18:51:55.524Z,9.25
2023-04-30T18:54:23.174Z,9.52
2023-04-30T18:56:50.945Z,11.65
2023-04-30T18:59:21.967Z,7.22
2023-04-30T19:01:52.044Z,12.82
2023-04-30T19:04:20.689Z,9.43
2023-04-30T19:06:52.338Z,8.40
2023-04-30T19:09:19.814Z,9.52
2023-04-30T19:11:50.870Z,9.55
2023-04-30T19:14:21.343Z,9.90
2023-04-30T19:16:48.833Z,6.82
2023-04-30T19:19:16.376Z,35.83
2023-04-30T19:21:43.938Z,45.22
2023-04-30T19:24:11.250Z,52.85
2023-04-30T19:26:38.735Z,41.38
2023-04-30T19:29:06.193Z,33.88
2023-04-30T19:31:35.423Z,34.53
2023-04-30T19:34:02.916Z,31.10
2023-04-30T19:36:32.655Z,34.83
2023-04-30T19:38:59.980Z,28.92
2023-04-30T19:41:27.772Z,41.92
2023-04-30T19:43:55.570Z,31.33
2023-04-30T19:46:23.271Z,30.92
2023-04-30T19:48:52.241Z,23.77
2023-04-30T19:51:19.532Z,23.42
2023-04-30T19:53:47.460Z,19.90
2023-04-30T19:56:14.928Z,17.95
2023-04-30T19:58:45.131Z,14.68
2023-04-30T20:01:12.944Z,17.00
2023-04-30T20:03:42.472Z,16.20
2023-04-30T20:06:10.386Z,10.85
2023-04-30T20:08:37.598Z,15.02
2023-04-30T20:11:06.734Z,14.73
2023-04-30T20:13:33.948Z,10.43
2023-04-30T20:16:01.315Z,13.98
2023-04-30T20:18:28.441Z,10.10
2023-04-30T20:20:58.296Z,11.75
2023-04-30T20:23:28.031Z,8.90
2023-04-30T20:25:55.319Z,6.90
2023-04-30T20:28:22.991Z,10.98
2023-04-30T20:30:50.273Z,9.55
2023-04-30T20:33:18.922Z,15.40
2023-04-30T20:35:46.529Z,14.30
2023-04-30T20:38:17.996Z,17.77
2023-04-30T20:40:47.488Z,16.38
2023-04-30T20:43:14.958Z,13.68
2023-04-30T20:45:44.660Z,9.48
2023-04-30T20:48:12.042Z,10.82
2023-04-30T20:50:39.445Z,11.82
2023-04-30T20:53:07.488Z,11.10
2023-04-30T20:55:36.338Z,12.55
2023-04-30T20:58:04.340Z,11.20
2023-04-30T21:00:31.650Z,16.45
2023-04-30T21:02:59.224Z,14.48
2023-04-30T21:05:28.653Z,22.52
2023-04-30T21:08:01.951Z,16.60
2023-04-30T21:10:36.372Z,22.75
2023-04-30T21:13:05.971Z,23.60
2023-04-30T21:15:35.554Z,19.58
2023-04-30T21:18:02.981Z,15.10
2023-04-30T21:20:31.933Z,11.68
2023-04-30T21:23:00.146Z,13.10
2023-04-30T21:25:27.334Z,9.90
2023-04-30T21:27:54.965Z,17.88
2023-04-30T21:30:25.034Z,9.98
2023-04-30T21:32:58.449Z,19.23
2023-04-30T21:35:30.036Z,23.00
2023-04-30T21:37:58.507Z,15.18
2023-04-30T21:40:25.982Z,17.55
2023-04-30T21:42:53.733Z,14.68
2023-04-30T21:45:21.915Z,17.13
2023-04-30T21:47:49.130Z,18.25
2023-04-30T21:50:19.671Z,22.10
2023-04-30T21:52:47.392Z,18.55
2023-04-30T21:55:14.484Z,22.55
2023-04-30T21:57:41.534Z,22.80
2023-04-30T22:00:14.524Z,32.80
2023-04-30T22:02:43.258Z,20.23
2023-04-30T22:05:13.988Z,12.80
2023-04-30T22:07:41.444Z,15.32
2023-04-30T22:10:10.323Z,17.05
2023-04-30T22:12:37.756Z,14.95
2023-04-30T22:15:05.846Z,13.82
2023-04-30T22:17:33.704Z,15.32
2023-04-30T22:20:01.178Z,14.38
2023-04-30T22:22:28.429Z,12.50
2023-04-30T22:24:55.563Z,11.02
2023-04-30T22:27:23.233Z,9.27
2023-04-30T22:29:51.129Z,7.85
2023-04-30T22:32:21.562Z,12.50
2023-04-30T22:34:49.426Z,8.43
2023-04-30T22:37:18.364Z,5.60
2023-04-30T22:39:47.293Z,11.00
2023-04-30T22:42:15.651Z,9.80
2023-04-30T22:44:45.147Z,8.82
2023-04-30T22:47:12.587Z,10.48
2023-04-30T22:49:39.913Z,7.88
2023-04-30T22:52:07.408Z,12.85
2023-04-30T22:54:35.238Z,7.53
2023-04-30T22:57:03.177Z,8.80
2023-04-30T22:59:30.202Z,7.65
2023-04-30T23:01:57.349Z,11.18
2023-04-30T23:04:24.781Z,10.85
2023-04-30T23:06:53.088Z,6.00
2023-04-30T23:09:20.281Z,8.80
2023-04-30T23:11:48.558Z,8.52
2023-04-30T23:14:15.783Z,9.52
2023-04-30T23:16:43.080Z,10.60
2023-04-30T23:19:10.685Z,9.00
2023-04-30T23:21:37.870Z,11.02
2023-04-30T23:24:05.203Z,8.57
2023-04-30T23:26:33.051Z,7.95
2023-04-30T23:29:00.270Z,9.55
2023-04-30T23:31:27.547Z,9.57
2023-04-30T23:33:54.910Z,7.30
2023-04-30T23:36:22.103Z,6.70
2023-04-30T23:38:50.131Z,7.30
2023-04-30T23:41:17.411Z,8.85
2023-04-30T23:43:44.597Z,8.10
2023-04-30T23:46:12.529Z,7.68
2023-04-30T23:48:39.789Z,8.63
2023-04-30T23:51:09.172Z,6.45
2023-04-30T23:53:36.649Z,8.05
2023-04-30T23:56:04.036Z,8.70
2023-04-30T23:58:31.384Z,11.20
